KCID/CID METAR and TAF weather

Enter ICAO airport designator
Station Type Date Time Source
KCID METAR 2022/01/29 01:52 UTC NOAA

KCID 290152Z 24004KT 9SM CLR M15/M17 A3035 RMK AO2 SLP300 T11501172


Station Type Date Time Source
KCID Decoded METAR 2022/01/29 01:52 UTC NOAA

CEDAR RAPIDS AIRPORT, IA, United States (KCID) 41-53N 91-43W
Jan 28, 2022 - 08:52 PM EST / 2022.01.29 0152 UTC
Wind: from the WSW (240 degrees) at 5 MPH (4 KT):0
Visibility: 9 mile(s):0
Sky conditions: clear
Temperature: 5.0 F (-15.0 C)
Windchill: -4 F (-20 C):1
Dew Point: 1.0 F (-17.2 C)
Relative Humidity: 83%
Pressure (altimeter): 30.35 in. Hg (1027 hPa)
ob: KCID 290152Z 24004KT 9SM CLR M15/M17 A3035 RMK AO2 SLP300 T11501172
cycle: 2

Station Type Date Time Source
KCID TAF 2022/01/28 19:58 UTC NOAA

TAF
AMD KCID 281857Z 2819/2918 31008KT P6SM SKC
FM290200 25004KT P6SM FEW030 SCT080
FM291200 16007KT P6SM SCT050

Example: see airport list